sensor_id;sensor_type;location;lat;lon;timestamp;pressure;altitude;pressure_sealevel;temperature;humidity
1401;BME280;46518;48.842;8.926;2023-02-18T00:01:17;98021.47;;;11.15;83.97
1401;BME280;46518;48.842;8.926;2023-02-18T00:03:46;98019.66;;;11.15;84.05
1401;BME280;46518;48.842;8.926;2023-02-18T00:06:17;98019.31;;;11.12;84.52
1401;BME280;46518;48.842;8.926;2023-02-18T00:08:45;98032.81;;;11.15;84.31
1401;BME280;46518;48.842;8.926;2023-02-18T00:11:15;98022.88;;;11.17;84.23
1401;BME280;46518;48.842;8.926;2023-02-18T00:13:48;98034.75;;;11.08;85.19
1401;BME280;46518;48.842;8.926;2023-02-18T00:16:18;98037.16;;;11.10;85.10
1401;BME280;46518;48.842;8.926;2023-02-18T00:18:47;98042.81;;;11.13;85.07
1401;BME280;46518;48.842;8.926;2023-02-18T00:21:15;98042.81;;;11.13;84.69
1401;BME280;46518;48.842;8.926;2023-02-18T00:23:43;98036.72;;;11.13;85.41
1401;BME280;46518;48.842;8.926;2023-02-18T00:26:13;98044.84;;;11.11;84.72
1401;BME280;46518;48.842;8.926;2023-02-18T00:28:42;98053.56;;;11.12;84.65
1401;BME280;46518;48.842;8.926;2023-02-18T00:31:12;98049.75;;;11.08;84.92
1401;BME280;46518;48.842;8.926;2023-02-18T00:33:43;98050.72;;;11.13;85.20
1401;BME280;46518;48.842;8.926;2023-02-18T00:36:14;98046.13;;;11.09;85.29
1401;BME280;46518;48.842;8.926;2023-02-18T00:38:44;98036.72;;;11.13;84.34
1401;BME280;46518;48.842;8.926;2023-02-18T00:41:12;98033.66;;;11.16;83.96
1401;BME280;46518;48.842;8.926;2023-02-18T00:43:41;98031.47;;;11.25;83.52
1401;BME280;46518;48.842;8.926;2023-02-18T00:46:09;98038.94;;;11.39;82.41
1401;BME280;46518;48.842;8.926;2023-02-18T00:48:37;98040.53;;;11.29;83.26
1401;BME280;46518;48.842;8.926;2023-02-18T00:51:07;98037.66;;;11.30;82.94
1401;BME280;46518;48.842;8.926;2023-02-18T00:53:36;98036.75;;;11.25;82.71
1401;BME280;46518;48.842;8.926;2023-02-18T00:56:06;98038.59;;;11.24;82.70
1401;BME280;46518;48.842;8.926;2023-02-18T00:58:35;98040.09;;;11.32;82.49
1401;BME280;46518;48.842;8.926;2023-02-18T01:01:04;98038.13;;;11.27;82.47
1401;BME280;46518;48.842;8.926;2023-02-18T01:03:33;98032.50;;;11.23;82.62
1401;BME280;46518;48.842;8.926;2023-02-18T01:06:02;98042.13;;;11.30;82.05
1401;BME280;46518;48.842;8.926;2023-02-18T01:08:34;98030.91;;;11.22;82.85
1401;BME280;46518;48.842;8.926;2023-02-18T01:11:03;98032.84;;;11.27;82.55
1401;BME280;46518;48.842;8.926;2023-02-18T01:13:32;98036.63;;;11.19;83.30
1401;BME280;46518;48.842;8.926;2023-02-18T01:16:00;98023.78;;;11.11;83.29
1401;BME280;46518;48.842;8.926;2023-02-18T01:18:29;98018.63;;;11.16;83.04
1401;BME280;46518;48.842;8.926;2023-02-18T01:20:57;98024.63;;;11.23;83.35
1401;BME280;46518;48.842;8.926;2023-02-18T01:23:26;98010.16;;;11.14;83.93
1401;BME280;46518;48.842;8.926;2023-02-18T01:25:56;98010.03;;;11.09;84.08
1401;BME280;46518;48.842;8.926;2023-02-18T01:28:24;98007.50;;;11.14;83.34
1401;BME280;46518;48.842;8.926;2023-02-18T01:30:52;98016.47;;;11.13;83.79
1401;BME280;46518;48.842;8.926;2023-02-18T01:33:21;98012.53;;;11.04;84.15
1401;BME280;46518;48.842;8.926;2023-02-18T01:35:51;98019.97;;;11.07;83.44
1401;BME280;46518;48.842;8.926;2023-02-18T01:38:22;98007.19;;;11.11;83.84
1401;BME280;46518;48.842;8.926;2023-02-18T01:40:51;98003.59;;;11.05;84.08
1401;BME280;46518;48.842;8.926;2023-02-18T01:43:22;98012.06;;;11.07;83.52
1401;BME280;46518;48.842;8.926;2023-02-18T01:45:59;98001.53;;;11.07;83.81
1401;BME280;46518;48.842;8.926;2023-02-18T01:48:32;98006.94;;;11.12;83.00
1401;BME280;46518;48.842;8.926;2023-02-18T01:51:09;97994.69;;;11.06;83.34
1401;BME280;46518;48.842;8.926;2023-02-18T01:53:44;98000.06;;;11.11;82.20
1401;BME280;46518;48.842;8.926;2023-02-18T01:56:18;97995.94;;;11.15;82.25
1401;BME280;46518;48.842;8.926;2023-02-18T01:58:50;97996.19;;;11.14;82.27
1401;BME280;46518;48.842;8.926;2023-02-18T02:01:19;97985.28;;;11.10;82.87
1401;BME280;46518;48.842;8.926;2023-02-18T02:03:47;97990.22;;;11.07;82.75
1401;BME280;46518;48.842;8.926;2023-02-18T02:06:18;97999.13;;;11.06;82.37
1401;BME280;46518;48.842;8.926;2023-02-18T02:08:50;97991.94;;;11.01;82.89
1401;BME280;46518;48.842;8.926;2023-02-18T02:11:34;97997.31;;;11.06;83.13
1401;BME280;46518;48.842;8.926;2023-02-18T02:14:24;97987.00;;;11.05;82.71
1401;BME280;46518;48.842;8.926;2023-02-18T02:17:02;97984.16;;;11.06;83.05
1401;BME280;46518;48.842;8.926;2023-02-18T02:22:51;97990.88;;;11.02;83.39
1401;BME280;46518;48.842;8.926;2023-02-18T02:25:44;97989.50;;;10.99;83.15
1401;BME280;46518;48.842;8.926;2023-02-18T02:28:41;97991.47;;;11.04;83.13
1401;BME280;46518;48.842;8.926;2023-02-18T02:31:45;97984.16;;;11.06;82.20
1401;BME280;46518;48.842;8.926;2023-02-18T02:34:28;97980.13;;;11.04;82.07
1401;BME280;46518;48.842;8.926;2023-02-18T02:37:08;97975.44;;;11.17;81.18
1401;BME280;46518;48.842;8.926;2023-02-18T02:39:47;97970.16;;;11.17;80.95
1401;BME280;46518;48.842;8.926;2023-02-18T02:42:26;97967.41;;;11.12;80.66
1401;BME280;46518;48.842;8.926;2023-02-18T02:45:03;97970.63;;;11.14;79.98
1401;BME280;46518;48.842;8.926;2023-02-18T02:47:36;97969.38;;;11.17;79.47
1401;BME280;46518;48.842;8.926;2023-02-18T02:50:09;97971.22;;;11.16;79.03
1401;BME280;46518;48.842;8.926;2023-02-18T02:52:43;97972.13;;;11.22;78.68
1401;BME280;46518;48.842;8.926;2023-02-18T02:55:14;97965.47;;;11.19;79.52
1401;BME280;46518;48.842;8.926;2023-02-18T02:57:50;97959.28;;;11.26;78.96
1401;BME280;46518;48.842;8.926;2023-02-18T03:00:28;97953.34;;;11.18;78.65
1401;BME280;46518;48.842;8.926;2023-02-18T03:03:18;97955.97;;;11.18;78.61
1401;BME280;46518;48.842;8.926;2023-02-18T03:06:05;97961.00;;;11.20;78.54
1401;BME280;46518;48.842;8.926;2023-02-18T03:08:44;97959.03;;;11.15;78.82
1401;BME280;46518;48.842;8.926;2023-02-18T03:11:18;97943.13;;;11.22;78.84
1401;BME280;46518;48.842;8.926;2023-02-18T03:13:55;97957.56;;;11.19;78.75
1401;BME280;46518;48.842;8.926;2023-02-18T03:16:35;97933.66;;;11.21;78.77
1401;BME280;46518;48.842;8.926;2023-02-18T03:19:12;97939.25;;;11.25;78.33
1401;BME280;46518;48.842;8.926;2023-02-18T03:21:52;97936.72;;;11.18;79.57
1401;BME280;46518;48.842;8.926;2023-02-18T03:24:25;97933.06;;;11.19;79.64
1401;BME280;46518;48.842;8.926;2023-02-18T03:26:58;97913.13;;;11.11;80.63
1401;BME280;46518;48.842;8.926;2023-02-18T03:29:28;97932.47;;;11.05;81.11
1401;BME280;46518;48.842;8.926;2023-02-18T03:31:59;97926.88;;;11.01;81.69
1401;BME280;46518;48.842;8.926;2023-02-18T03:34:32;97926.41;;;11.05;81.53
1401;BME280;46518;48.842;8.926;2023-02-18T03:37:02;97921.72;;;11.07;80.87
1401;BME280;46518;48.842;8.926;2023-02-18T03:39:34;97922.41;;;11.02;81.49
1401;BME280;46518;48.842;8.926;2023-02-18T03:42:03;97926.75;;;11.08;81.33
1401;BME280;46518;48.842;8.926;2023-02-18T03:44:32;97927.66;;;11.02;81.48
1401;BME280;46518;48.842;8.926;2023-02-18T03:47:00;97934.88;;;11.07;80.77
1401;BME280;46518;48.842;8.926;2023-02-18T03:49:29;97942.91;;;11.12;80.52
1401;BME280;46518;48.842;8.926;2023-02-18T03:51:58;97935.44;;;11.20;79.95
1401;BME280;46518;48.842;8.926;2023-02-18T03:54:28;97927.78;;;11.19;79.89
1401;BME280;46518;48.842;8.926;2023-02-18T03:56:57;97929.97;;;11.34;79.34
1401;BME280;46518;48.842;8.926;2023-02-18T03:59:25;97927.56;;;11.32;79.23
1401;BME280;46518;48.842;8.926;2023-02-18T04:01:53;97935.69;;;11.42;79.03
1401;BME280;46518;48.842;8.926;2023-02-18T04:04:21;97926.75;;;11.32;78.87
1401;BME280;46518;48.842;8.926;2023-02-18T04:06:50;97931.69;;;11.40;78.27
1401;BME280;46518;48.842;8.926;2023-02-18T04:09:18;97924.94;;;11.44;77.63
1401;BME280;46518;48.842;8.926;2023-02-18T04:11:48;97911.75;;;11.32;77.03
1401;BME280;46518;48.842;8.926;2023-02-18T04:14:16;97930.41;;;11.42;77.58
1401;BME280;46518;48.842;8.926;2023-02-18T04:16:44;97927.66;;;11.37;77.74
1401;BME280;46518;48.842;8.926;2023-02-18T04:19:13;97910.25;;;11.36;76.71
1401;BME280;46518;48.842;8.926;2023-02-18T04:21:41;97916.53;;;11.47;76.30
1401;BME280;46518;48.842;8.926;2023-02-18T04:24:09;97913.13;;;11.47;76.00
1401;BME280;46518;48.842;8.926;2023-02-18T04:26:37;97909.56;;;11.41;76.02
1401;BME280;46518;48.842;8.926;2023-02-18T04:29:07;97906.59;;;11.49;75.47
1401;BME280;46518;48.842;8.926;2023-02-18T04:31:35;97921.13;;;11.40;75.80
1401;BME280;46518;48.842;8.926;2023-02-18T04:34:03;97914.06;;;11.29;75.98
1401;BME280;46518;48.842;8.926;2023-02-18T04:36:32;97918.38;;;11.35;74.82
1401;BME280;46518;48.842;8.926;2023-02-18T04:39:00;97922.97;;;11.28;75.48
1401;BME280;46518;48.842;8.926;2023-02-18T04:41:28;97918.38;;;11.23;75.10
1401;BME280;46518;48.842;8.926;2023-02-18T04:43:56;97916.56;;;11.23;74.82
1401;BME280;46518;48.842;8.926;2023-02-18T04:46:27;97919.66;;;11.20;75.26
1401;BME280;46518;48.842;8.926;2023-02-18T04:48:55;97907.03;;;11.22;75.09
1401;BME280;46518;48.842;8.926;2023-02-18T04:51:23;97921.84;;;11.23;74.98
1401;BME280;46518;48.842;8.926;2023-02-18T04:53:52;97924.34;;;11.30;74.68
1401;BME280;46518;48.842;8.926;2023-02-18T04:56:20;97915.75;;;11.23;75.14
1401;BME280;46518;48.842;8.926;2023-02-18T04:58:48;97911.31;;;11.23;74.78
1401;BME280;46518;48.842;8.926;2023-02-18T05:01:16;97911.06;;;11.25;74.71
1401;BME280;46518;48.842;8.926;2023-02-18T05:03:46;97895.72;;;11.34;74.03
1401;BME280;46518;48.842;8.926;2023-02-18T05:06:15;97918.59;;;11.45;73.43
1401;BME280;46518;48.842;8.926;2023-02-18T05:08:43;97919.91;;;11.31;73.89
1401;BME280;46518;48.842;8.926;2023-02-18T05:11:11;97916.44;;;11.30;73.93
1401;BME280;46518;48.842;8.926;2023-02-18T05:13:39;97917.00;;;11.32;74.05
1401;BME280;46518;48.842;8.926;2023-02-18T05:16:08;97913.91;;;11.35;73.42
1401;BME280;46518;48.842;8.926;2023-02-18T05:18:36;97917.91;;;11.50;72.80
1401;BME280;46518;48.842;8.926;2023-02-18T05:21:06;97912.88;;;11.48;72.54
1401;BME280;46518;48.842;8.926;2023-02-18T05:23:35;97906.69;;;11.54;72.62
1401;BME280;46518;48.842;8.926;2023-02-18T05:26:03;97913.91;;;11.47;72.93
1401;BME280;46518;48.842;8.926;2023-02-18T05:28:32;97908.84;;;11.45;73.28
1401;BME280;46518;48.842;8.926;2023-02-18T05:31:00;97902.94;;;11.27;73.54
1401;BME280;46518;48.842;8.926;2023-02-18T05:33:28;97900.72;;;11.47;73.09
1401;BME280;46518;48.842;8.926;2023-02-18T05:35:56;97900.31;;;11.38;73.18
1401;BME280;46518;48.842;8.926;2023-02-18T05:38:26;97901.88;;;11.39;72.89
1401;BME280;46518;48.842;8.926;2023-02-18T05:40:54;97886.88;;;11.28;72.96
1401;BME280;46518;48.842;8.926;2023-02-18T05:43:22;97895.94;;;11.44;72.51
1401;BME280;46518;48.842;8.926;2023-02-18T05:45:50;97899.94;;;11.47;72.29
1401;BME280;46518;48.842;8.926;2023-02-18T05:48:19;97892.81;;;11.47;72.35
1401;BME280;46518;48.842;8.926;2023-02-18T05:50:47;97886.16;;;11.56;71.93
1401;BME280;46518;48.842;8.926;2023-02-18T05:53:19;97882.84;;;11.61;71.18
1401;BME280;46518;48.842;8.926;2023-02-18T05:55:49;97895.47;;;11.47;72.68
1401;BME280;46518;48.842;8.926;2023-02-18T05:58:17;97904.84;;;11.43;72.73
1401;BME280;46518;48.842;8.926;2023-02-18T06:00:45;97890.28;;;11.52;71.86
1401;BME280;46518;48.842;8.926;2023-02-18T06:03:14;97891.78;;;11.48;72.45
1401;BME280;46518;48.842;8.926;2023-02-18T06:05:42;97908.16;;;11.50;72.69
1401;BME280;46518;48.842;8.926;2023-02-18T06:08:10;97895.66;;;11.57;71.95
1401;BME280;46518;48.842;8.926;2023-02-18T06:10:39;97896.81;;;11.61;72.29
1401;BME280;46518;48.842;8.926;2023-02-18T06:13:08;97888.22;;;11.54;72.49
1401;BME280;46518;48.842;8.926;2023-02-18T06:15:37;97878.59;;;11.48;72.56
1401;BME280;46518;48.842;8.926;2023-02-18T06:18:05;97884.00;;;11.53;72.58
1401;BME280;46518;48.842;8.926;2023-02-18T06:20:34;97886.91;;;11.80;71.75
1401;BME280;46518;48.842;8.926;2023-02-18T06:23:02;97877.78;;;11.59;72.28
1401;BME280;46518;48.842;8.926;2023-02-18T06:25:32;97882.13;;;11.65;71.40
1401;BME280;46518;48.842;8.926;2023-02-18T06:28:00;97875.56;;;11.68;70.83
1401;BME280;46518;48.842;8.926;2023-02-18T06:30:29;97879.38;;;11.60;72.04
1401;BME280;46518;48.842;8.926;2023-02-18T06:32:57;97881.91;;;11.55;72.35
1401;BME280;46518;48.842;8.926;2023-02-18T06:35:25;97883.84;;;11.60;72.31
1401;BME280;46518;48.842;8.926;2023-02-18T06:37:54;97897.41;;;11.63;71.90
1401;BME280;46518;48.842;8.926;2023-02-18T06:40:22;97896.13;;;11.66;72.45
1401;BME280;46518;48.842;8.926;2023-02-18T06:42:50;97898.63;;;11.73;71.43
1401;BME280;46518;48.842;8.926;2023-02-18T06:45:19;97893.13;;;11.62;71.91
1401;BME280;46518;48.842;8.926;2023-02-18T06:47:49;97903.19;;;11.77;71.33
1401;BME280;46518;48.842;8.926;2023-02-18T06:50:17;97902.63;;;11.87;71.30
1401;BME280;46518;48.842;8.926;2023-02-18T06:52:45;97890.00;;;11.77;71.74
1401;BME280;46518;48.842;8.926;2023-02-18T06:55:13;97888.25;;;11.83;71.22
1401;BME280;46518;48.842;8.926;2023-02-18T06:57:42;97893.31;;;11.84;70.93
1401;BME280;46518;48.842;8.926;2023-02-18T07:00:10;97891.28;;;11.75;71.63
1401;BME280;46518;48.842;8.926;2023-02-18T07:02:39;97875.94;;;11.72;71.42
1401;BME280;46518;48.842;8.926;2023-02-18T07:05:08;97897.53;;;11.85;70.93
1401;BME280;46518;48.842;8.926;2023-02-18T07:07:36;97885.06;;;11.93;71.04
1401;BME280;46518;48.842;8.926;2023-02-18T07:10:06;97887.47;;;11.82;71.43
1401;BME280;46518;48.842;8.926;2023-02-18T07:12:34;97891.28;;;11.75;70.83
1401;BME280;46518;48.842;8.926;2023-02-18T07:15:03;97890.47;;;11.74;71.04
1401;BME280;46518;48.842;8.926;2023-02-18T07:17:32;97877.72;;;11.83;71.10
1401;BME280;46518;48.842;8.926;2023-02-18T07:20:00;97859.03;;;11.84;70.66
1401;BME280;46518;48.842;8.926;2023-02-18T07:22:29;97874.97;;;11.90;70.67
1401;BME280;46518;48.842;8.926;2023-02-18T07:24:58;97859.50;;;11.81;70.81
1401;BME280;46518;48.842;8.926;2023-02-18T07:27:26;97848.81;;;11.88;70.31
1401;BME280;46518;48.842;8.926;2023-02-18T07:29:54;97856.63;;;11.95;70.59
1401;BME280;46518;48.842;8.926;2023-02-18T07:32:22;97869.78;;;12.06;70.33
1401;BME280;46518;48.842;8.926;2023-02-18T07:34:51;97841.75;;;12.05;70.84
1401;BME280;46518;48.842;8.926;2023-02-18T07:37:19;97848.66;;;12.06;70.69
1401;BME280;46518;48.842;8.926;2023-02-18T07:39:49;97854.06;;;12.00;70.33
1401;BME280;46518;48.842;8.926;2023-02-18T07:42:17;97845.03;;;11.96;70.54
1401;BME280;46518;48.842;8.926;2023-02-18T07:44:46;97845.53;;;12.09;70.81
1401;BME280;46518;48.842;8.926;2023-02-18T07:47:15;97856.41;;;11.96;71.11
1401;BME280;46518;48.842;8.926;2023-02-18T07:49:45;97854.06;;;12.00;71.06
1401;BME280;46518;48.842;8.926;2023-02-18T07:52:14;97839.50;;;11.97;70.09
1401;BME280;46518;48.842;8.926;2023-02-18T07:54:43;97850.72;;;12.04;70.58
1401;BME280;46518;48.842;8.926;2023-02-18T07:57:14;97846.03;;;12.06;70.59
1401;BME280;46518;48.842;8.926;2023-02-18T07:59:42;97852.03;;;12.19;70.14
1401;BME280;46518;48.842;8.926;2023-02-18T08:02:13;97852.75;;;12.14;69.82
1401;BME280;46518;48.842;8.926;2023-02-18T08:04:45;97858.72;;;12.09;70.06
1401;BME280;46518;48.842;8.926;2023-02-18T08:07:14;97863.59;;;12.01;70.63
1401;BME280;46518;48.842;8.926;2023-02-18T08:09:43;97864.25;;;12.08;69.71
1401;BME280;46518;48.842;8.926;2023-02-18T08:12:13;97851.22;;;12.01;70.53
1401;BME280;46518;48.842;8.926;2023-02-18T08:14:41;97870.00;;;12.05;70.25
1401;BME280;46518;48.842;8.926;2023-02-18T08:17:10;97848.28;;;12.15;69.19
1401;BME280;46518;48.842;8.926;2023-02-18T08:19:38;97866.50;;;12.16;68.98
1401;BME280;46518;48.842;8.926;2023-02-18T08:22:06;97855.31;;;12.09;69.47
1401;BME280;46518;48.842;8.926;2023-02-18T08:24:35;97851.34;;;12.23;69.73
1401;BME280;46518;48.842;8.926;2023-02-18T08:27:04;97849.34;;;12.30;69.61
1401;BME280;46518;48.842;8.926;2023-02-18T08:29:33;97844.63;;;12.16;69.38
1401;BME280;46518;48.842;8.926;2023-02-18T08:32:02;97847.25;;;12.16;69.02
1401;BME280;46518;48.842;8.926;2023-02-18T08:34:30;97838.06;;;12.18;69.28
1401;BME280;46518;48.842;8.926;2023-02-18T08:37:00;97829.50;;;12.28;68.76
1401;BME280;46518;48.842;8.926;2023-02-18T08:39:33;97820.84;;;12.33;68.85
1401;BME280;46518;48.842;8.926;2023-02-18T08:42:02;97828.94;;;12.26;69.53
1401;BME280;46518;48.842;8.926;2023-02-18T08:44:30;97827.91;;;12.27;69.58
1401;BME280;46518;48.842;8.926;2023-02-18T08:47:00;97849.00;;;12.27;68.72
1401;BME280;46518;48.842;8.926;2023-02-18T08:49:28;97835.72;;;12.22;69.94
1401;BME280;46518;48.842;8.926;2023-02-18T08:51:56;97832.47;;;12.32;70.83
1401;BME280;46518;48.842;8.926;2023-02-18T08:54:25;97837.25;;;12.35;69.51
1401;BME280;46518;48.842;8.926;2023-02-18T08:56:53;97837.06;;;12.53;69.63
1401;BME280;46518;48.842;8.926;2023-02-18T08:59:23;97838.88;;;12.52;70.19
1401;BME280;46518;48.842;8.926;2023-02-18T09:01:51;97841.59;;;12.58;70.25
1401;BME280;46518;48.842;8.926;2023-02-18T09:04:21;97838.47;;;12.44;70.21
1401;BME280;46518;48.842;8.926;2023-02-18T09:06:49;97843.41;;;12.40;71.26
1401;BME280;46518;48.842;8.926;2023-02-18T09:09:18;97826.31;;;12.26;71.56
1401;BME280;46518;48.842;8.926;2023-02-18T09:11:46;97812.94;;;12.33;71.63
1401;BME280;46518;48.842;8.926;2023-02-18T09:14:15;97817.84;;;12.41;71.77
1401;BME280;46518;48.842;8.926;2023-02-18T09:16:43;97813.59;;;12.40;71.46
1401;BME280;46518;48.842;8.926;2023-02-18T09:19:11;97812.00;;;12.39;71.06
1401;BME280;46518;48.842;8.926;2023-02-18T09:21:41;97799.19;;;12.47;70.34
1401;BME280;46518;48.842;8.926;2023-02-18T09:24:09;97802.06;;;12.63;69.95
1401;BME280;46518;48.842;8.926;2023-02-18T09:26:37;97807.19;;;12.69;70.23
1401;BME280;46518;48.842;8.926;2023-02-18T09:29:06;97804.47;;;12.64;70.67
1401;BME280;46518;48.842;8.926;2023-02-18T09:31:34;97799.81;;;12.71;70.10
1401;BME280;46518;48.842;8.926;2023-02-18T09:34:04;97799.41;;;12.80;69.54
1401;BME280;46518;48.842;8.926;2023-02-18T09:36:32;97815.25;;;12.80;69.52
1401;BME280;46518;48.842;8.926;2023-02-18T09:39:02;97803.53;;;12.70;68.87
1401;BME280;46518;48.842;8.926;2023-02-18T09:41:36;97812.97;;;12.66;67.82
1401;BME280;46518;48.842;8.926;2023-02-18T09:44:10;97812.69;;;12.68;69.10
1401;BME280;46518;48.842;8.926;2023-02-18T09:46:47;97807.53;;;12.73;68.24
1401;BME280;46518;48.842;8.926;2023-02-18T09:49:19;97814.53;;;12.84;67.74
1401;BME280;46518;48.842;8.926;2023-02-18T09:51:48;97818.22;;;12.83;68.59
1401;BME280;46518;48.842;8.926;2023-02-18T09:54:19;97816.63;;;12.82;69.26
1401;BME280;46518;48.842;8.926;2023-02-18T09:56:48;97811.81;;;12.79;68.11
1401;BME280;46518;48.842;8.926;2023-02-18T09:59:18;97815.75;;;12.77;67.23
1401;BME280;46518;48.842;8.926;2023-02-18T10:01:47;97830.72;;;12.71;66.79
1401;BME280;46518;48.842;8.926;2023-02-18T10:04:19;97825.09;;;12.67;67.03
1401;BME280;46518;48.842;8.926;2023-02-18T10:06:51;97817.44;;;12.66;66.80
1401;BME280;46518;48.842;8.926;2023-02-18T10:09:24;97814.88;;;12.54;67.22
1401;BME280;46518;48.842;8.926;2023-02-18T10:11:55;97808.31;;;12.57;67.47
1401;BME280;46518;48.842;8.926;2023-02-18T10:14:24;97811.03;;;12.62;67.16
1401;BME280;46518;48.842;8.926;2023-02-18T10:16:53;97813.81;;;12.72;67.36
1401;BME280;46518;48.842;8.926;2023-02-18T10:19:25;97818.88;;;12.73;66.84
1401;BME280;46518;48.842;8.926;2023-02-18T10:21:55;97813.75;;;12.67;67.67
1401;BME280;46518;48.842;8.926;2023-02-18T10:24:28;97823.91;;;12.75;67.33
1401;BME280;46518;48.842;8.926;2023-02-18T10:26:59;97825.53;;;12.76;66.08
1401;BME280;46518;48.842;8.926;2023-02-18T10:29:27;97832.22;;;12.84;67.19
1401;BME280;46518;48.842;8.926;2023-02-18T10:32:05;97812.19;;;12.88;65.90
1401;BME280;46518;48.842;8.926;2023-02-18T10:34:39;97813.59;;;12.90;66.21
1401;BME280;46518;48.842;8.926;2023-02-18T10:37:28;97815.00;;;12.98;66.01
1401;BME280;46518;48.842;8.926;2023-02-18T10:40:09;97828.09;;;13.10;66.46
1401;BME280;46518;48.842;8.926;2023-02-18T10:42:48;97813.38;;;13.14;66.19
1401;BME280;46518;48.842;8.926;2023-02-18T10:45:30;97813.47;;;13.02;65.33
1401;BME280;46518;48.842;8.926;2023-02-18T10:48:18;97814.88;;;13.10;67.51
1401;BME280;46518;48.842;8.926;2023-02-18T10:50:49;97806.97;;;13.10;66.30
1401;BME280;46518;48.842;8.926;2023-02-18T10:53:24;97805.38;;;13.09;65.76
1401;BME280;46518;48.842;8.926;2023-02-18T10:55:57;97800.38;;;13.12;65.42
1401;BME280;46518;48.842;8.926;2023-02-18T10:58:30;97826.13;;;13.00;65.80
1401;BME280;46518;48.842;8.926;2023-02-18T11:00:59;97790.47;;;13.03;65.87
1401;BME280;46518;48.842;8.926;2023-02-18T11:03:42;97818.75;;;13.02;65.36
1401;BME280;46518;48.842;8.926;2023-02-18T11:06:19;97802.59;;;12.99;64.93
1401;BME280;46518;48.842;8.926;2023-02-18T11:08:48;97781.38;;;12.93;65.66
1401;BME280;46518;48.842;8.926;2023-02-18T11:11:22;97789.28;;;13.10;64.21
1401;BME280;46518;48.842;8.926;2023-02-18T11:13:52;97788.94;;;13.07;65.20
1401;BME280;46518;48.842;8.926;2023-02-18T11:16:22;97784.78;;;13.11;64.77
1401;BME280;46518;48.842;8.926;2023-02-18T11:18:50;97786.94;;;13.14;64.25
1401;BME280;46518;48.842;8.926;2023-02-18T11:21:28;97790.06;;;13.11;64.90
1401;BME280;46518;48.842;8.926;2023-02-18T11:23:57;97783.09;;;13.05;64.05
1401;BME280;46518;48.842;8.926;2023-02-18T11:26:35;97770.88;;;12.99;63.78
1401;BME280;46518;48.842;8.926;2023-02-18T11:29:08;97788.09;;;13.01;63.83
1401;BME280;46518;48.842;8.926;2023-02-18T11:31:43;97766.16;;;13.01;63.42
1401;BME280;46518;48.842;8.926;2023-02-18T11:34:15;97768.13;;;13.10;64.50
1401;BME280;46518;48.842;8.926;2023-02-18T11:36:44;97766.59;;;13.14;65.13
1401;BME280;46518;48.842;8.926;2023-02-18T11:39:18;97762.09;;;13.15;64.15
1401;BME280;46518;48.842;8.926;2023-02-18T11:41:55;97765.22;;;13.12;64.25
1401;BME280;46518;48.842;8.926;2023-02-18T11:44:27;97773.66;;;13.09;64.03
1401;BME280;46518;48.842;8.926;2023-02-18T11:46:59;97764.38;;;13.06;64.71
1401;BME280;46518;48.842;8.926;2023-02-18T11:49:29;97753.19;;;13.21;64.83
1401;BME280;46518;48.842;8.926;2023-02-18T11:52:04;97756.22;;;13.30;64.55
1401;BME280;46518;48.842;8.926;2023-02-18T11:54:33;97762.00;;;13.27;63.73
1401;BME280;46518;48.842;8.926;2023-02-18T11:57:04;97755.84;;;13.21;64.83
1401;BME280;46518;48.842;8.926;2023-02-18T11:59:35;97770.84;;;13.15;64.66
1401;BME280;46518;48.842;8.926;2023-02-18T12:02:23;97771.81;;;13.09;65.36
1401;BME280;46518;48.842;8.926;2023-02-18T12:04:58;97764.06;;;13.03;64.47
1401;BME280;46518;48.842;8.926;2023-02-18T12:07:32;97763.91;;;12.92;65.62
1401;BME280;46518;48.842;8.926;2023-02-18T12:10:12;97756.00;;;12.92;66.37
1401;BME280;46518;48.842;8.926;2023-02-18T12:12:46;97750.53;;;12.99;65.82
1401;BME280;46518;48.842;8.926;2023-02-18T12:15:19;97758.16;;;12.95;66.09
1401;BME280;46518;48.842;8.926;2023-02-18T12:18:10;97750.97;;;12.91;65.64
1401;BME280;46518;48.842;8.926;2023-02-18T12:21:02;97743.72;;;13.03;65.63
1401;BME280;46518;48.842;8.926;2023-02-18T12:23:37;97751.09;;;13.01;65.47
1401;BME280;46518;48.842;8.926;2023-02-18T12:26:21;97755.47;;;12.90;64.28
1401;BME280;46518;48.842;8.926;2023-02-18T12:29:21;97756.41;;;12.84;65.22
1401;BME280;46518;48.842;8.926;2023-02-18T12:32:17;97753.72;;;12.79;65.38
1401;BME280;46518;48.842;8.926;2023-02-18T12:35:04;97745.22;;;12.77;65.45
1401;BME280;46518;48.842;8.926;2023-02-18T12:37:51;97745.72;;;12.74;65.70
1401;BME280;46518;48.842;8.926;2023-02-18T12:40:39;97756.59;;;12.78;65.07
1401;BME280;46518;48.842;8.926;2023-02-18T12:43:19;97748.63;;;12.56;65.73
1401;BME280;46518;48.842;8.926;2023-02-18T12:46:21;97743.81;;;12.52;66.38
1401;BME280;46518;48.842;8.926;2023-02-18T12:49:10;97752.31;;;12.55;66.69
1401;BME280;46518;48.842;8.926;2023-02-18T12:51:53;97765.28;;;12.56;66.77
1401;BME280;46518;48.842;8.926;2023-02-18T12:54:36;97736.94;;;12.51;66.40
1401;BME280;46518;48.842;8.926;2023-02-18T13:00:29;97734.09;;;12.53;67.07
1401;BME280;46518;48.842;8.926;2023-02-18T13:03:45;97738.06;;;12.56;65.79
1401;BME280;46518;48.842;8.926;2023-02-18T13:06:39;97732.63;;;12.45;67.24
1401;BME280;46518;48.842;8.926;2023-02-18T13:09:14;97737.91;;;12.45;67.42
1401;BME280;46518;48.842;8.926;2023-02-18T13:11:51;97744.00;;;12.46;67.04
1401;BME280;46518;48.842;8.926;2023-02-18T13:14:27;97758.34;;;12.33;66.28
1401;BME280;46518;48.842;8.926;2023-02-18T13:16:58;97715.38;;;12.21;67.11
1401;BME280;46518;48.842;8.926;2023-02-18T13:19:32;97730.72;;;12.41;66.21
1401;BME280;46518;48.842;8.926;2023-02-18T13:22:05;97731.53;;;12.41;66.37
1401;BME280;46518;48.842;8.926;2023-02-18T13:24:38;97725.13;;;12.37;67.31
1401;BME280;46518;48.842;8.926;2023-02-18T13:27:14;97708.56;;;12.42;67.73
1401;BME280;46518;48.842;8.926;2023-02-18T13:29:49;97706.72;;;12.42;67.20
1401;BME280;46518;48.842;8.926;2023-02-18T13:32:27;97712.41;;;12.51;67.27
1401;BME280;46518;48.842;8.926;2023-02-18T13:35:07;97713.69;;;12.48;66.89
1401;BME280;46518;48.842;8.926;2023-02-18T13:37:52;97708.06;;;12.45;67.01
1401;BME280;46518;48.842;8.926;2023-02-18T13:40:25;97703.69;;;12.50;67.42
1401;BME280;46518;48.842;8.926;2023-02-18T13:43:17;97700.34;;;12.60;66.69